sensor_id;sensor_type;location;lat;lon;timestamp;P1;durP1;ratioP1;P2;durP2;ratioP2
4182;SDS011;2105;52.300;9.182;2022-08-19T00:01:45;13.73;;;7.27;;
4182;SDS011;2105;52.300;9.182;2022-08-19T00:04:15;15.40;;;6.90;;
4182;SDS011;2105;52.300;9.182;2022-08-19T00:06:43;15.43;;;6.97;;
4182;SDS011;2105;52.300;9.182;2022-08-19T00:09:13;15.43;;;7.70;;
4182;SDS011;2105;52.300;9.182;2022-08-19T00:11:42;13.80;;;7.10;;
4182;SDS011;2105;52.300;9.182;2022-08-19T00:14:10;9.67;;;6.77;;
4182;SDS011;2105;52.300;9.182;2022-08-19T00:16:38;14.77;;;7.80;;
4182;SDS011;2105;52.300;9.182;2022-08-19T00:19:06;11.37;;;6.90;;
4182;SDS011;2105;52.300;9.182;2022-08-19T00:21:34;17.03;;;7.67;;
4182;SDS011;2105;52.300;9.182;2022-08-19T00:24:03;10.37;;;7.00;;
4182;SDS011;2105;52.300;9.182;2022-08-19T00:26:31;13.20;;;7.40;;
4182;SDS011;2105;52.300;9.182;2022-08-19T00:28:58;15.23;;;7.10;;
4182;SDS011;2105;52.300;9.182;2022-08-19T00:31:25;16.03;;;7.50;;
4182;SDS011;2105;52.300;9.182;2022-08-19T00:33:52;11.20;;;7.60;;
4182;SDS011;2105;52.300;9.182;2022-08-19T00:36:19;17.10;;;7.60;;
4182;SDS011;2105;52.300;9.182;2022-08-19T00:38:48;12.10;;;6.70;;
4182;SDS011;2105;52.300;9.182;2022-08-19T00:41:17;12.30;;;6.53;;
4182;SDS011;2105;52.300;9.182;2022-08-19T00:43:56;11.27;;;7.47;;
4182;SDS011;2105;52.300;9.182;2022-08-19T00:46:24;11.03;;;7.77;;
4182;SDS011;2105;52.300;9.182;2022-08-19T00:48:51;14.27;;;7.93;;
4182;SDS011;2105;52.300;9.182;2022-08-19T00:51:17;12.37;;;7.10;;
4182;SDS011;2105;52.300;9.182;2022-08-19T00:53:44;12.40;;;6.87;;
4182;SDS011;2105;52.300;9.182;2022-08-19T00:56:12;12.43;;;6.80;;
4182;SDS011;2105;52.300;9.182;2022-08-19T00:58:40;10.90;;;7.10;;
4182;SDS011;2105;52.300;9.182;2022-08-19T01:01:07;11.13;;;7.33;;
4182;SDS011;2105;52.300;9.182;2022-08-19T01:03:33;9.40;;;7.20;;
4182;SDS011;2105;52.300;9.182;2022-08-19T01:06:00;15.43;;;7.93;;
4182;SDS011;2105;52.300;9.182;2022-08-19T01:08:27;13.77;;;7.43;;
4182;SDS011;2105;52.300;9.182;2022-08-19T01:10:55;13.80;;;7.10;;
4182;SDS011;2105;52.300;9.182;2022-08-19T01:13:25;10.43;;;6.47;;
4182;SDS011;2105;52.300;9.182;2022-08-19T01:15:56;10.73;;;7.07;;
4182;SDS011;2105;52.300;9.182;2022-08-19T01:18:26;8.97;;;6.70;;
4182;SDS011;2105;52.300;9.182;2022-08-19T01:20:56;8.00;;;6.57;;
4182;SDS011;2105;52.300;9.182;2022-08-19T01:23:29;11.30;;;6.57;;
4182;SDS011;2105;52.300;9.182;2022-08-19T01:26:09;12.03;;;7.27;;
4182;SDS011;2105;52.300;9.182;2022-08-19T01:28:38;17.30;;;6.60;;
4182;SDS011;2105;52.300;9.182;2022-08-19T01:31:06;7.63;;;6.40;;
4182;SDS011;2105;52.300;9.182;2022-08-19T01:33:36;14.50;;;7.27;;
4182;SDS011;2105;52.300;9.182;2022-08-19T01:36:04;12.37;;;6.33;;
4182;SDS011;2105;52.300;9.182;2022-08-19T01:38:35;11.17;;;6.90;;
4182;SDS011;2105;52.300;9.182;2022-08-19T01:41:04;7.97;;;6.50;;
4182;SDS011;2105;52.300;9.182;2022-08-19T01:43:31;10.10;;;6.50;;
4182;SDS011;2105;52.300;9.182;2022-08-19T01:45:58;11.30;;;7.30;;
4182;SDS011;2105;52.300;9.182;2022-08-19T01:48:26;9.83;;;6.30;;
4182;SDS011;2105;52.300;9.182;2022-08-19T01:50:55;11.57;;;6.53;;
4182;SDS011;2105;52.300;9.182;2022-08-19T01:53:21;9.23;;;6.70;;
4182;SDS011;2105;52.300;9.182;2022-08-19T01:55:49;12.93;;;6.87;;
4182;SDS011;2105;52.300;9.182;2022-08-19T01:58:17;10.07;;;6.83;;
4182;SDS011;2105;52.300;9.182;2022-08-19T02:00:47;12.00;;;7.17;;
4182;SDS011;2105;52.300;9.182;2022-08-19T02:03:14;13.30;;;6.37;;
4182;SDS011;2105;52.300;9.182;2022-08-19T02:05:42;14.50;;;6.10;;
4182;SDS011;2105;52.300;9.182;2022-08-19T02:08:10;10.00;;;6.80;;
4182;SDS011;2105;52.300;9.182;2022-08-19T02:10:38;11.40;;;6.70;;
4182;SDS011;2105;52.300;9.182;2022-08-19T02:13:08;12.47;;;7.90;;
4182;SDS011;2105;52.300;9.182;2022-08-19T02:15:35;11.50;;;7.53;;
4182;SDS011;2105;52.300;9.182;2022-08-19T02:18:02;21.87;;;7.97;;
4182;SDS011;2105;52.300;9.182;2022-08-19T02:20:30;11.83;;;7.47;;
4182;SDS011;2105;52.300;9.182;2022-08-19T02:22:57;13.10;;;7.20;;
4182;SDS011;2105;52.300;9.182;2022-08-19T02:25:23;10.83;;;7.33;;
4182;SDS011;2105;52.300;9.182;2022-08-19T02:27:50;13.20;;;8.10;;
4182;SDS011;2105;52.300;9.182;2022-08-19T02:30:18;10.43;;;7.93;;
4182;SDS011;2105;52.300;9.182;2022-08-19T02:32:44;9.80;;;7.60;;
4182;SDS011;2105;52.300;9.182;2022-08-19T02:35:11;12.30;;;8.00;;
4182;SDS011;2105;52.300;9.182;2022-08-19T02:37:39;9.60;;;7.40;;
4182;SDS011;2105;52.300;9.182;2022-08-19T02:40:23;18.40;;;9.17;;
4182;SDS011;2105;52.300;9.182;2022-08-19T02:42:51;16.20;;;9.70;;
4182;SDS011;2105;52.300;9.182;2022-08-19T02:45:19;18.60;;;9.80;;
4182;SDS011;2105;52.300;9.182;2022-08-19T02:47:46;15.73;;;11.20;;
4182;SDS011;2105;52.300;9.182;2022-08-19T02:50:12;15.57;;;11.40;;
4182;SDS011;2105;52.300;9.182;2022-08-19T02:52:39;20.40;;;12.23;;
4182;SDS011;2105;52.300;9.182;2022-08-19T02:55:06;20.90;;;12.50;;
4182;SDS011;2105;52.300;9.182;2022-08-19T02:57:33;16.60;;;12.50;;
4182;SDS011;2105;52.300;9.182;2022-08-19T03:00:00;19.63;;;13.37;;
4182;SDS011;2105;52.300;9.182;2022-08-19T03:02:30;23.00;;;14.47;;
4182;SDS011;2105;52.300;9.182;2022-08-19T03:04:57;17.70;;;13.63;;
4182;SDS011;2105;52.300;9.182;2022-08-19T03:07:24;21.00;;;13.90;;
4182;SDS011;2105;52.300;9.182;2022-08-19T03:09:50;20.10;;;13.90;;
4182;SDS011;2105;52.300;9.182;2022-08-19T03:12:17;20.30;;;13.63;;
4182;SDS011;2105;52.300;9.182;2022-08-19T03:14:44;23.23;;;12.80;;
4182;SDS011;2105;52.300;9.182;2022-08-19T03:17:11;20.93;;;14.30;;
4182;SDS011;2105;52.300;9.182;2022-08-19T03:19:39;22.03;;;14.23;;
4182;SDS011;2105;52.300;9.182;2022-08-19T03:22:06;25.20;;;14.97;;
4182;SDS011;2105;52.300;9.182;2022-08-19T03:24:33;24.67;;;15.53;;
4182;SDS011;2105;52.300;9.182;2022-08-19T03:26:59;22.63;;;15.23;;
4182;SDS011;2105;52.300;9.182;2022-08-19T03:29:29;22.07;;;15.10;;
4182;SDS011;2105;52.300;9.182;2022-08-19T03:31:57;23.77;;;17.63;;
4182;SDS011;2105;52.300;9.182;2022-08-19T03:34:26;27.60;;;16.57;;
4182;SDS011;2105;52.300;9.182;2022-08-19T03:36:57;25.20;;;18.20;;
4182;SDS011;2105;52.300;9.182;2022-08-19T03:39:25;26.93;;;18.10;;
4182;SDS011;2105;52.300;9.182;2022-08-19T03:41:53;24.90;;;17.97;;
4182;SDS011;2105;52.300;9.182;2022-08-19T03:44:22;24.93;;;17.17;;
4182;SDS011;2105;52.300;9.182;2022-08-19T03:46:50;26.43;;;17.97;;
4182;SDS011;2105;52.300;9.182;2022-08-19T03:49:20;23.40;;;17.67;;
4182;SDS011;2105;52.300;9.182;2022-08-19T03:51:49;21.83;;;17.27;;
4182;SDS011;2105;52.300;9.182;2022-08-19T03:54:19;29.93;;;19.00;;
4182;SDS011;2105;52.300;9.182;2022-08-19T03:56:48;24.00;;;18.00;;
4182;SDS011;2105;52.300;9.182;2022-08-19T03:59:16;34.47;;;20.70;;
4182;SDS011;2105;52.300;9.182;2022-08-19T04:01:45;30.73;;;20.03;;
4182;SDS011;2105;52.300;9.182;2022-08-19T04:04:12;29.70;;;20.37;;
4182;SDS011;2105;52.300;9.182;2022-08-19T04:06:38;38.23;;;20.70;;
4182;SDS011;2105;52.300;9.182;2022-08-19T04:09:06;35.23;;;23.53;;
4182;SDS011;2105;52.300;9.182;2022-08-19T04:11:38;32.67;;;22.90;;
4182;SDS011;2105;52.300;9.182;2022-08-19T04:14:06;39.37;;;22.93;;
4182;SDS011;2105;52.300;9.182;2022-08-19T04:16:33;32.80;;;22.33;;
4182;SDS011;2105;52.300;9.182;2022-08-19T04:19:00;44.63;;;23.43;;
4182;SDS011;2105;52.300;9.182;2022-08-19T04:21:29;43.67;;;23.80;;
4182;SDS011;2105;52.300;9.182;2022-08-19T04:23:56;39.70;;;24.40;;
4182;SDS011;2105;52.300;9.182;2022-08-19T04:26:24;33.93;;;23.47;;
4182;SDS011;2105;52.300;9.182;2022-08-19T04:28:54;35.27;;;23.40;;
4182;SDS011;2105;52.300;9.182;2022-08-19T04:31:21;32.23;;;21.67;;
4182;SDS011;2105;52.300;9.182;2022-08-19T04:33:50;42.97;;;23.80;;
4182;SDS011;2105;52.300;9.182;2022-08-19T04:36:18;43.70;;;25.10;;
4182;SDS011;2105;52.300;9.182;2022-08-19T04:38:47;47.43;;;25.10;;
4182;SDS011;2105;52.300;9.182;2022-08-19T04:41:14;34.10;;;23.80;;
4182;SDS011;2105;52.300;9.182;2022-08-19T04:44:00;33.73;;;23.40;;
4182;SDS011;2105;52.300;9.182;2022-08-19T04:46:27;34.23;;;23.97;;
4182;SDS011;2105;52.300;9.182;2022-08-19T04:48:55;34.33;;;23.87;;
4182;SDS011;2105;52.300;9.182;2022-08-19T04:51:22;40.37;;;24.60;;
4182;SDS011;2105;52.300;9.182;2022-08-19T04:53:49;35.67;;;24.57;;
4182;SDS011;2105;52.300;9.182;2022-08-19T04:56:17;32.90;;;22.93;;
4182;SDS011;2105;52.300;9.182;2022-08-19T04:58:47;34.80;;;22.20;;
4182;SDS011;2105;52.300;9.182;2022-08-19T05:01:19;39.50;;;22.60;;
4182;SDS011;2105;52.300;9.182;2022-08-19T05:03:48;43.43;;;23.43;;
4182;SDS011;2105;52.300;9.182;2022-08-19T05:06:16;35.87;;;23.07;;
4182;SDS011;2105;52.300;9.182;2022-08-19T05:08:44;41.70;;;25.37;;
4182;SDS011;2105;52.300;9.182;2022-08-19T05:11:12;37.77;;;24.30;;
4182;SDS011;2105;52.300;9.182;2022-08-19T05:13:40;33.27;;;22.73;;
4182;SDS011;2105;52.300;9.182;2022-08-19T05:16:07;32.90;;;22.13;;
4182;SDS011;2105;52.300;9.182;2022-08-19T05:18:35;34.50;;;23.87;;
4182;SDS011;2105;52.300;9.182;2022-08-19T05:21:19;37.03;;;23.63;;
4182;SDS011;2105;52.300;9.182;2022-08-19T05:24:05;32.00;;;21.10;;
4182;SDS011;2105;52.300;9.182;2022-08-19T05:26:33;38.37;;;21.17;;
4182;SDS011;2105;52.300;9.182;2022-08-19T05:29:00;32.47;;;21.10;;
4182;SDS011;2105;52.300;9.182;2022-08-19T05:31:27;34.80;;;21.17;;
4182;SDS011;2105;52.300;9.182;2022-08-19T05:33:55;30.70;;;21.50;;
4182;SDS011;2105;52.300;9.182;2022-08-19T05:36:23;30.87;;;21.60;;
4182;SDS011;2105;52.300;9.182;2022-08-19T05:38:50;30.80;;;21.63;;
4182;SDS011;2105;52.300;9.182;2022-08-19T05:41:17;33.37;;;22.17;;
4182;SDS011;2105;52.300;9.182;2022-08-19T05:43:45;33.17;;;22.43;;
4182;SDS011;2105;52.300;9.182;2022-08-19T05:46:15;29.60;;;21.50;;
4182;SDS011;2105;52.300;9.182;2022-08-19T05:48:44;31.60;;;22.40;;
4182;SDS011;2105;52.300;9.182;2022-08-19T05:51:12;38.40;;;21.60;;
4182;SDS011;2105;52.300;9.182;2022-08-19T05:53:39;35.83;;;23.90;;
4182;SDS011;2105;52.300;9.182;2022-08-19T05:56:06;30.30;;;21.13;;
4182;SDS011;2105;52.300;9.182;2022-08-19T05:58:34;31.03;;;21.50;;
4182;SDS011;2105;52.300;9.182;2022-08-19T06:01:02;34.73;;;23.33;;
4182;SDS011;2105;52.300;9.182;2022-08-19T06:03:31;33.00;;;23.30;;
4182;SDS011;2105;52.300;9.182;2022-08-19T06:05:59;30.83;;;21.40;;
4182;SDS011;2105;52.300;9.182;2022-08-19T06:08:28;29.20;;;21.10;;
4182;SDS011;2105;52.300;9.182;2022-08-19T06:10:56;27.60;;;22.13;;
4182;SDS011;2105;52.300;9.182;2022-08-19T06:13:22;27.00;;;19.97;;
4182;SDS011;2105;52.300;9.182;2022-08-19T06:15:50;31.70;;;19.73;;
4182;SDS011;2105;52.300;9.182;2022-08-19T06:18:17;30.70;;;19.63;;
4182;SDS011;2105;52.300;9.182;2022-08-19T06:20:44;27.37;;;18.57;;
4182;SDS011;2105;52.300;9.182;2022-08-19T06:23:11;26.80;;;20.17;;
4182;SDS011;2105;52.300;9.182;2022-08-19T06:25:39;28.50;;;19.73;;
4182;SDS011;2105;52.300;9.182;2022-08-19T06:28:06;26.87;;;19.30;;
4182;SDS011;2105;52.300;9.182;2022-08-19T06:30:33;28.90;;;20.07;;
4182;SDS011;2105;52.300;9.182;2022-08-19T06:32:59;31.90;;;19.97;;
4182;SDS011;2105;52.300;9.182;2022-08-19T06:35:26;25.73;;;18.90;;
4182;SDS011;2105;52.300;9.182;2022-08-19T06:37:54;26.63;;;19.63;;
4182;SDS011;2105;52.300;9.182;2022-08-19T06:40:21;27.23;;;19.10;;
4182;SDS011;2105;52.300;9.182;2022-08-19T06:42:49;29.47;;;18.90;;
4182;SDS011;2105;52.300;9.182;2022-08-19T06:45:17;30.10;;;17.83;;
4182;SDS011;2105;52.300;9.182;2022-08-19T06:47:45;28.00;;;18.47;;
4182;SDS011;2105;52.300;9.182;2022-08-19T06:50:13;23.63;;;17.37;;
4182;SDS011;2105;52.300;9.182;2022-08-19T06:52:40;26.50;;;17.60;;
4182;SDS011;2105;52.300;9.182;2022-08-19T06:55:07;23.33;;;17.40;;
4182;SDS011;2105;52.300;9.182;2022-08-19T06:57:34;19.30;;;16.67;;
4182;SDS011;2105;52.300;9.182;2022-08-19T07:00:02;22.97;;;17.50;;
4182;SDS011;2105;52.300;9.182;2022-08-19T07:02:31;22.00;;;17.00;;
4182;SDS011;2105;52.300;9.182;2022-08-19T07:05:02;23.27;;;17.07;;
4182;SDS011;2105;52.300;9.182;2022-08-19T07:07:30;27.27;;;17.77;;
4182;SDS011;2105;52.300;9.182;2022-08-19T07:09:57;21.63;;;16.80;;
4182;SDS011;2105;52.300;9.182;2022-08-19T07:12:24;24.50;;;17.10;;
4182;SDS011;2105;52.300;9.182;2022-08-19T07:14:51;22.93;;;16.03;;
4182;SDS011;2105;52.300;9.182;2022-08-19T07:17:19;29.83;;;16.20;;
4182;SDS011;2105;52.300;9.182;2022-08-19T07:19:46;20.47;;;16.93;;
4182;SDS011;2105;52.300;9.182;2022-08-19T07:22:13;25.63;;;16.33;;
4182;SDS011;2105;52.300;9.182;2022-08-19T07:24:40;24.73;;;16.50;;
4182;SDS011;2105;52.300;9.182;2022-08-19T07:27:07;24.17;;;16.90;;
4182;SDS011;2105;52.300;9.182;2022-08-19T07:29:35;21.47;;;16.73;;
4182;SDS011;2105;52.300;9.182;2022-08-19T07:32:03;27.83;;;16.07;;
4182;SDS011;2105;52.300;9.182;2022-08-19T07:34:32;18.73;;;11.70;;
4182;SDS011;2105;52.300;9.182;2022-08-19T07:37:02;20.40;;;13.67;;
4182;SDS011;2105;52.300;9.182;2022-08-19T07:39:31;17.40;;;12.23;;
4182;SDS011;2105;52.300;9.182;2022-08-19T07:42:01;15.23;;;11.50;;
4182;SDS011;2105;52.300;9.182;2022-08-19T07:44:31;18.27;;;12.33;;
4182;SDS011;2105;52.300;9.182;2022-08-19T07:46:58;16.10;;;12.00;;
4182;SDS011;2105;52.300;9.182;2022-08-19T07:49:25;16.37;;;11.73;;
4182;SDS011;2105;52.300;9.182;2022-08-19T07:51:55;18.80;;;12.30;;
4182;SDS011;2105;52.300;9.182;2022-08-19T07:54:23;22.10;;;12.57;;
4182;SDS011;2105;52.300;9.182;2022-08-19T07:56:51;22.17;;;13.70;;
4182;SDS011;2105;52.300;9.182;2022-08-19T07:59:18;21.83;;;11.93;;
4182;SDS011;2105;52.300;9.182;2022-08-19T08:01:48;17.83;;;10.50;;
4182;SDS011;2105;52.300;9.182;2022-08-19T08:04:16;15.37;;;10.60;;
4182;SDS011;2105;52.300;9.182;2022-08-19T08:07:02;14.97;;;11.07;;
4182;SDS011;2105;52.300;9.182;2022-08-19T08:09:47;14.40;;;8.63;;
4182;SDS011;2105;52.300;9.182;2022-08-19T08:12:14;11.10;;;9.20;;
4182;SDS011;2105;52.300;9.182;2022-08-19T08:14:44;12.90;;;8.50;;
4182;SDS011;2105;52.300;9.182;2022-08-19T08:17:13;8.70;;;7.20;;
4182;SDS011;2105;52.300;9.182;2022-08-19T08:19:41;12.67;;;8.70;;
4182;SDS011;2105;52.300;9.182;2022-08-19T08:22:10;13.70;;;8.10;;
4182;SDS011;2105;52.300;9.182;2022-08-19T08:25:00;10.70;;;7.90;;
4182;SDS011;2105;52.300;9.182;2022-08-19T08:27:27;13.23;;;8.17;;
4182;SDS011;2105;52.300;9.182;2022-08-19T08:29:55;13.00;;;8.90;;
4182;SDS011;2105;52.300;9.182;2022-08-19T08:32:22;10.60;;;8.07;;
4182;SDS011;2105;52.300;9.182;2022-08-19T08:34:49;9.50;;;7.17;;
4182;SDS011;2105;52.300;9.182;2022-08-19T08:37:17;15.53;;;8.93;;
4182;SDS011;2105;52.300;9.182;2022-08-19T08:39:44;12.93;;;6.97;;
4182;SDS011;2105;52.300;9.182;2022-08-19T08:42:12;10.20;;;6.80;;
4182;SDS011;2105;52.300;9.182;2022-08-19T08:44:44;14.50;;;8.20;;
4182;SDS011;2105;52.300;9.182;2022-08-19T08:47:16;9.43;;;6.83;;
4182;SDS011;2105;52.300;9.182;2022-08-19T08:49:47;9.00;;;5.80;;
4182;SDS011;2105;52.300;9.182;2022-08-19T08:52:21;11.00;;;6.20;;
4182;SDS011;2105;52.300;9.182;2022-08-19T08:54:50;11.00;;;6.90;;
4182;SDS011;2105;52.300;9.182;2022-08-19T08:57:20;12.83;;;6.87;;
4182;SDS011;2105;52.300;9.182;2022-08-19T09:00:02;13.73;;;6.80;;
4182;SDS011;2105;52.300;9.182;2022-08-19T09:02:32;10.00;;;5.40;;
4182;SDS011;2105;52.300;9.182;2022-08-19T09:04:59;12.00;;;4.63;;
4182;SDS011;2105;52.300;9.182;2022-08-19T09:07:32;9.60;;;4.90;;
4182;SDS011;2105;52.300;9.182;2022-08-19T09:10:10;11.03;;;5.13;;
4182;SDS011;2105;52.300;9.182;2022-08-19T09:12:45;11.30;;;4.83;;
4182;SDS011;2105;52.300;9.182;2022-08-19T09:15:22;8.17;;;4.80;;
4182;SDS011;2105;52.300;9.182;2022-08-19T09:17:54;5.43;;;4.60;;
4182;SDS011;2105;52.300;9.182;2022-08-19T09:20:24;6.43;;;4.27;;
4182;SDS011;2105;52.300;9.182;2022-08-19T09:22:52;8.20;;;4.50;;
4182;SDS011;2105;52.300;9.182;2022-08-19T09:25:20;6.70;;;5.07;;
4182;SDS011;2105;52.300;9.182;2022-08-19T09:27:49;7.20;;;4.97;;
4182;SDS011;2105;52.300;9.182;2022-08-19T09:30:19;7.40;;;4.80;;
4182;SDS011;2105;52.300;9.182;2022-08-19T09:32:47;5.33;;;4.13;;
4182;SDS011;2105;52.300;9.182;2022-08-19T09:35:14;6.67;;;4.10;;
4182;SDS011;2105;52.300;9.182;2022-08-19T09:37:41;8.33;;;3.50;;
4182;SDS011;2105;52.300;9.182;2022-08-19T09:40:10;6.40;;;3.77;;
4182;SDS011;2105;52.300;9.182;2022-08-19T09:42:38;5.60;;;3.50;;
4182;SDS011;2105;52.300;9.182;2022-08-19T09:45:05;7.90;;;3.80;;
4182;SDS011;2105;52.300;9.182;2022-08-19T09:47:32;7.13;;;3.90;;
4182;SDS011;2105;52.300;9.182;2022-08-19T09:50:01;6.13;;;4.10;;
4182;SDS011;2105;52.300;9.182;2022-08-19T09:52:27;4.77;;;4.27;;
4182;SDS011;2105;52.300;9.182;2022-08-19T09:54:54;4.73;;;3.47;;
4182;SDS011;2105;52.300;9.182;2022-08-19T09:57:22;6.20;;;3.60;;
4182;SDS011;2105;52.300;9.182;2022-08-19T09:59:49;6.20;;;4.70;;
4182;SDS011;2105;52.300;9.182;2022-08-19T10:02:15;5.73;;;4.30;;
4182;SDS011;2105;52.300;9.182;2022-08-19T10:04:42;4.90;;;4.30;;
4182;SDS011;2105;52.300;9.182;2022-08-19T10:07:26;6.63;;;4.37;;
4182;SDS011;2105;52.300;9.182;2022-08-19T10:09:55;7.70;;;5.63;;
4182;SDS011;2105;52.300;9.182;2022-08-19T10:12:23;6.67;;;5.10;;
4182;SDS011;2105;52.300;9.182;2022-08-19T10:14:50;8.13;;;5.83;;
4182;SDS011;2105;52.300;9.182;2022-08-19T10:17:19;9.00;;;6.57;;
4182;SDS011;2105;52.300;9.182;2022-08-19T10:19:46;6.30;;;5.37;;
4182;SDS011;2105;52.300;9.182;2022-08-19T10:22:12;6.07;;;5.57;;
4182;SDS011;2105;52.300;9.182;2022-08-19T10:24:40;6.77;;;6.00;;
4182;SDS011;2105;52.300;9.182;2022-08-19T10:27:07;7.43;;;6.20;;
4182;SDS011;2105;52.300;9.182;2022-08-19T10:29:35;7.53;;;5.43;;
4182;SDS011;2105;52.300;9.182;2022-08-19T10:32:03;8.13;;;6.80;;
4182;SDS011;2105;52.300;9.182;2022-08-19T10:34:32;6.37;;;5.77;;
4182;SDS011;2105;52.300;9.182;2022-08-19T10:36:59;7.93;;;6.33;;
4182;SDS011;2105;52.300;9.182;2022-08-19T10:39:26;6.50;;;6.00;;
4182;SDS011;2105;52.300;9.182;2022-08-19T10:41:54;6.73;;;6.00;;
4182;SDS011;2105;52.300;9.182;2022-08-19T10:44:22;7.20;;;5.67;;
4182;SDS011;2105;52.300;9.182;2022-08-19T10:46:50;6.40;;;5.80;;
4182;SDS011;2105;52.300;9.182;2022-08-19T10:49:17;6.10;;;5.60;;
4182;SDS011;2105;52.300;9.182;2022-08-19T10:51:45;7.33;;;6.83;;
4182;SDS011;2105;52.300;9.182;2022-08-19T10:54:30;5.87;;;5.47;;
4182;SDS011;2105;52.300;9.182;2022-08-19T10:57:12;10.93;;;6.40;;
4182;SDS011;2105;52.300;9.182;2022-08-19T10:59:39;7.07;;;6.47;;
4182;SDS011;2105;52.300;9.182;2022-08-19T11:02:08;6.70;;;6.00;;
4182;SDS011;2105;52.300;9.182;2022-08-19T11:04:37;6.70;;;6.20;;
4182;SDS011;2105;52.300;9.182;2022-08-19T11:07:04;6.37;;;5.77;;
4182;SDS011;2105;52.300;9.182;2022-08-19T11:09:36;7.20;;;5.80;;
4182;SDS011;2105;52.300;9.182;2022-08-19T11:12:04;6.13;;;5.47;;
4182;SDS011;2105;52.300;9.182;2022-08-19T11:14:32;6.23;;;5.73;;
4182;SDS011;2105;52.300;9.182;2022-08-19T11:17:00;6.80;;;6.20;;
4182;SDS011;2105;52.300;9.182;2022-08-19T11:19:28;6.30;;;5.70;;
4182;SDS011;2105;52.300;9.182;2022-08-19T11:21:55;7.30;;;6.00;;
4182;SDS011;2105;52.300;9.182;2022-08-19T11:24:27;6.13;;;5.63;;
4182;SDS011;2105;52.300;9.182;2022-08-19T11:26:58;9.47;;;5.93;;
4182;SDS011;2105;52.300;9.182;2022-08-19T11:29:30;6.70;;;6.10;;
4182;SDS011;2105;52.300;9.182;2022-08-19T11:31:59;6.10;;;5.70;;
4182;SDS011;2105;52.300;9.182;2022-08-19T11:34:30;6.30;;;5.70;;
4182;SDS011;2105;52.300;9.182;2022-08-19T11:36:57;5.97;;;5.57;;
4182;SDS011;2105;52.300;9.182;2022-08-19T11:39:25;8.20;;;6.13;;
4182;SDS011;2105;52.300;9.182;2022-08-19T11:41:53;10.83;;;6.40;;
4182;SDS011;2105;52.300;9.182;2022-08-19T11:44:20;6.50;;;5.77;;
4182;SDS011;2105;52.300;9.182;2022-08-19T11:46:47;8.60;;;5.70;;
4182;SDS011;2105;52.300;9.182;2022-08-19T11:49:14;6.10;;;5.60;;
4182;SDS011;2105;52.300;9.182;2022-08-19T11:51:45;6.03;;;5.50;;
4182;SDS011;2105;52.300;9.182;2022-08-19T11:54:13;5.60;;;5.10;;
4182;SDS011;2105;52.300;9.182;2022-08-19T11:56:42;6.63;;;5.70;;
4182;SDS011;2105;52.300;9.182;2022-08-19T11:59:10;6.20;;;5.60;;
4182;SDS011;2105;52.300;9.182;2022-08-19T12:01:37;6.57;;;6.07;;
4182;SDS011;2105;52.300;9.182;2022-08-19T12:04:05;6.13;;;5.73;;
4182;SDS011;2105;52.300;9.182;2022-08-19T12:06:32;7.20;;;6.37;;
4182;SDS011;2105;52.300;9.182;2022-08-19T12:09:02;6.97;;;6.37;;
4182;SDS011;2105;52.300;9.182;2022-08-19T12:11:32;6.50;;;6.10;;
4182;SDS011;2105;52.300;9.182;2022-08-19T12:13:59;6.40;;;5.90;;
4182;SDS011;2105;52.300;9.182;2022-08-19T12:16:26;6.40;;;5.80;;
4182;SDS011;2105;52.300;9.182;2022-08-19T12:18:55;6.43;;;6.03;;
4182;SDS011;2105;52.300;9.182;2022-08-19T12:21:24;5.87;;;5.50;;
4182;SDS011;2105;52.300;9.182;2022-08-19T12:23:52;6.30;;;5.80;;
4182;SDS011;2105;52.300;9.182;2022-08-19T12:26:21;6.00;;;5.70;;
4182;SDS011;2105;52.300;9.182;2022-08-19T12:28:48;6.27;;;5.73;;
4182;SDS011;2105;52.300;9.182;2022-08-19T12:31:15;7.53;;;6.20;;
4182;SDS011;2105;52.300;9.182;2022-08-19T12:33:42;6.60;;;6.20;;
4182;SDS011;2105;52.300;9.182;2022-08-19T12:36:10;6.60;;;6.10;;
4182;SDS011;2105;52.300;9.182;2022-08-19T12:38:38;6.90;;;6.50;;
4182;SDS011;2105;52.300;9.182;2022-08-19T12:41:06;6.80;;;6.40;;
4182;SDS011;2105;52.300;9.182;2022-08-19T12:43:38;6.70;;;6.30;;
4182;SDS011;2105;52.300;9.182;2022-08-19T12:46:06;6.30;;;5.90;;
4182;SDS011;2105;52.300;9.182;2022-08-19T12:48:33;8.07;;;6.30;;
4182;SDS011;2105;52.300;9.182;2022-08-19T12:51:00;6.50;;;6.10;;
4182;SDS011;2105;52.300;9.182;2022-08-19T12:53:27;6.43;;;5.83;;
4182;SDS011;2105;52.300;9.182;2022-08-19T12:55:54;6.77;;;6.30;;
4182;SDS011;2105;52.300;9.182;2022-08-19T12:58:22;9.40;;;6.27;;
4182;SDS011;2105;52.300;9.182;2022-08-19T13:00:50;7.10;;;6.50;;
4182;SDS011;2105;52.300;9.182;2022-08-19T13:03:17;7.00;;;6.60;;
4182;SDS011;2105;52.300;9.182;2022-08-19T13:05:44;6.70;;;6.30;;
4182;SDS011;2105;52.300;9.182;2022-08-19T13:08:11;7.23;;;6.73;;
4182;SDS011;2105;52.300;9.182;2022-08-19T13:10:37;7.10;;;6.60;;
4182;SDS011;2105;52.300;9.182;2022-08-19T13:13:05;6.93;;;6.40;;
4182;SDS011;2105;52.300;9.182;2022-08-19T13:15:34;7.37;;;6.90;;
4182;SDS011;2105;52.300;9.182;2022-08-19T13:18:06;7.17;;;6.70;;
4182;SDS011;2105;52.300;9.182;2022-08-19T13:20:34;6.40;;;6.00;;
4182;SDS011;2105;52.300;9.182;2022-08-19T13:23:01;9.07;;;6.43;;
4182;SDS011;2105;52.300;9.182;2022-08-19T13:25:28;8.17;;;6.27;;
4182;SDS011;2105;52.300;9.182;2022-08-19T13:27:55;7.40;;;6.80;;
4182;SDS011;2105;52.300;9.182;2022-08-19T13:30:22;6.93;;;6.47;;
4182;SDS011;2105;52.300;9.182;2022-08-19T13:33:08;8.23;;;6.60;;
4182;SDS011;2105;52.300;9.182;2022-08-19T13:35:39;7.30;;;6.80;;
4182;SDS011;2105;52.300;9.182;2022-08-19T13:38:07;7.40;;;6.90;;
4182;SDS011;2105;52.300;9.182;2022-08-19T13:40:34;6.87;;;6.37;;
4182;SDS011;2105;52.300;9.182;2022-08-19T13:43:01;7.33;;;6.90;;
4182;SDS011;2105;52.300;9.182;2022-08-19T13:45:29;7.60;;;6.90;;
4182;SDS011;2105;52.300;9.182;2022-08-19T13:47:59;7.53;;;6.93;;
4182;SDS011;2105;52.300;9.182;2022-08-19T13:50:33;7.73;;;7.23;;
4182;SDS011;2105;52.300;9.182;2022-08-19T13:53:01;7.57;;;7.00;;
4182;SDS011;2105;52.300;9.182;2022-08-19T13:55:29;7.77;;;7.17;;
4182;SDS011;2105;52.300;9.182;2022-08-19T13:57:57;7.57;;;7.07;;
4182;SDS011;2105;52.300;9.182;2022-08-19T14:00:27;7.70;;;7.20;;
4182;SDS011;2105;52.300;9.182;2022-08-19T14:02:57;7.60;;;7.10;;
4182;SDS011;2105;52.300;9.182;2022-08-19T14:05:24;7.70;;;7.20;;
4182;SDS011;2105;52.300;9.182;2022-08-19T14:07:54;7.57;;;6.97;;
4182;SDS011;2105;52.300;9.182;2022-08-19T14:10:21;8.30;;;7.50;;
4182;SDS011;2105;52.300;9.182;2022-08-19T14:12:52;7.87;;;7.27;;
4182;SDS011;2105;52.300;9.182;2022-08-19T14:15:20;7.63;;;6.93;;
4182;SDS011;2105;52.300;9.182;2022-08-19T14:17:47;7.93;;;7.43;;
4182;SDS011;2105;52.300;9.182;2022-08-19T14:20:14;8.00;;;7.30;;
4182;SDS011;2105;52.300;9.182;2022-08-19T14:22:42;11.63;;;7.60;;
4182;SDS011;2105;52.300;9.182;2022-08-19T14:25:11;8.30;;;7.60;;
4182;SDS011;2105;52.300;9.182;2022-08-19T14:27:40;8.50;;;7.90;;
4182;SDS011;2105;52.300;9.182;2022-08-19T14:30:08;8.30;;;7.80;;
4182;SDS011;2105;52.300;9.182;2022-08-19T14:32:37;8.37;;;7.70;;
4182;SDS011;2105;52.300;9.182;2022-08-19T14:35:04;7.87;;;7.37;;
4182;SDS011;2105;52.300;9.182;2022-08-19T14:37:32;7.50;;;7.00;;
4182;SDS011;2105;52.300;9.182;2022-08-19T14:39:59;8.47;;;7.93;;
4182;SDS011;2105;52.300;9.182;2022-08-19T14:42:27;7.83;;;7.20;;
4182;SDS011;2105;52.300;9.182;2022-08-19T14:44:56;8.30;;;7.80;;
4182;SDS011;2105;52.300;9.182;2022-08-19T14:47:24;8.57;;;7.97;;
4182;SDS011;2105;52.300;9.182;2022-08-19T14:49:51;8.23;;;7.63;;
4182;SDS011;2105;52.300;9.182;2022-08-19T14:52:17;7.80;;;7.30;;
4182;SDS011;2105;52.300;9.182;2022-08-19T14:54:44;7.17;;;6.77;;
4182;SDS011;2105;52.300;9.182;2022-08-19T14:57:11;8.10;;;7.40;;
4182;SDS011;2105;52.300;9.182;2022-08-19T14:59:41;8.43;;;7.60;;
4182;SDS011;2105;52.300;9.182;2022-08-19T15:02:08;7.23;;;6.73;;
4182;SDS011;2105;52.300;9.182;2022-08-19T15:04:35;8.27;;;7.67;;
4182;SDS011;2105;52.300;9.182;2022-08-19T15:07:02;7.77;;;7.17;;
4182;SDS011;2105;52.300;9.182;2022-08-19T15:09:29;9.00;;;7.40;;
4182;SDS011;2105;52.300;9.182;2022-08-19T15:11:56;8.23;;;7.60;;